Flight Track Log - Related Links

Times and Time Zones

All times are in EDT time to prevent confusion due to time zone crossing. See the SWA407 flight status page for this flight to view local times or setup timezone preferences in your user account.

Time Position Orientation Groundspeed Altitude Reporting Facility
EDT Latitude Longitude Course Direction KTS MPH feet Rate Location/Type
Thu 19:12:07 42.9500 -78.7167 36° Northeast 136 157 1,900  Level Buffalo TRACON
Thu 19:12:25 42.9667 -78.7000 36° Northeast 132 152 2,700 2,430 Climbing Buffalo TRACON
Thu 19:14:45 42.8444 -78.6689 169° South 211 243 8,300 2,400 Climbing Cleveland Center
Thu 19:15:45 42.7778 -78.6625 176° South 256 295 10,700 2,900 Climbing Cleveland Center
Thu 19:16:45 42.6881 -78.6567 177° South 293 337 14,100 3,000 Climbing Cleveland Center
Thu 19:17:45 42.5900 -78.6542 179° South 328 377 16,700 2,850 Climbing Cleveland Center
Thu 19:18:45 42.4836 -78.6489 178° South 362 417 19,800 3,150 Climbing Cleveland Center
Thu 19:19:45 42.3708 -78.6411 177° South 375 432 23,000 1,600 Climbing Cleveland Center
Thu 19:20:45 42.2686 -78.6331 177° South 375 432 23,000  Level Cleveland Center
Thu 19:21:45 42.1728 -78.6303 179° South 380 437 23,000  Level Cleveland Center
Thu 19:22:45 42.0778 -78.5606 151° Southeast 380 437 23,000  Level Cleveland Center
Thu 19:23:45 41.9883 -78.4656 142° Southeast 387 445 23,000  Level Cleveland Center
Thu 19:24:45 41.8992 -78.3736 142° Southeast 397 457 23,000 850 Level Cleveland Center
Thu 19:25:45 41.8097 -78.2792 142° Southeast 408 470 24,700 1,000 Climbing Cleveland Center
Thu 19:26:45 41.7161 -78.1825 142° Southeast 421 484 25,000 129 Climbing Cleveland Center
Thu 19:28:04 41.5792 -78.0231 139° Southeast 451 519 25,000  Level New Center
Thu 19:29:04 41.4992 -77.8981 130° Southeast 473 544 25,000  Level New Center
Thu 19:30:06 41.3994 -77.7547 133° Southeast 478 550 25,000 -50 Level New Center
Thu 19:31:03 41.3069 -77.6236 133° Southeast 488 562 24,900 -655 Descending New Center
Thu 19:32:05 41.1944 -77.5514 154° Southeast 475 547 23,700 -1,426 Descending New Center
Thu 19:33:05 41.0864 -77.5078 163° South 436 502 22,000 -1,289 Descending New Center
Thu 19:34:06 40.9786 -77.4611 162° South 423 487 21,100 -958 Descending New Center
Thu 19:35:04 40.8708 -77.4122 161° South 412 474 20,100 -1,017 Descending New Center
Thu 19:36:04 40.7653 -77.3636 161° South 412 474 19,100 -550 Descending New Center
Thu 19:37:04 40.6697 -77.3217 162° South 412 474 19,000 -50 Descending New Center
Thu 19:38:05 40.5719 -77.2767 161° South 391 450 19,000  Level New Center
Thu 19:39:05 40.4742 -77.2347 162° South 346 398 19,000 -50 Level New Center
Thu 19:40:04 40.3989 -77.2031 162° South 327 376 18,900 -650 Descending New Center
Thu 19:41:05 40.3053 -77.1592 160° South 327 376 17,700 -1,116 Descending New Center
Thu 19:42:56 40.1500 -77.0833 160° South 322 371 15,700 -1,053 Descending Potomac TRACON
Thu 19:43:56 40.0667 -77.0500 163° South 319 367 14,700 -1,000 Descending Potomac TRACON
Thu 19:44:56 39.9833 -77.0167 163° South 309 356 13,700 -1,000 Descending Potomac TRACON
Thu 19:45:56 39.9000 -76.9833 163° South 306 352 12,700 -850 Descending Potomac TRACON
Thu 19:46:56 39.8167 -76.9500 163° South 295 339 12,000 -1,000 Descending Potomac TRACON
Thu 19:47:56 39.7500 -76.9167 159° South 286 329 10,700 -1,300 Descending Potomac TRACON
Thu 19:48:56 39.6667 -76.8833 163° South 284 327 9,400 -1,368 Descending Potomac TRACON
Thu 19:49:50 39.6000 -76.8500 159° South 283 326 8,100 -1,421 Descending Potomac TRACON
Thu 19:50:50 39.5333 -76.8667 191° South 261 300 6,700 -1,500 Descending Potomac TRACON
Thu 19:51:50 39.4667 -76.8833 191° South 252 290 5,100 -1,350 Descending Potomac TRACON
Thu 19:52:50 39.4000 -76.9000 191° South 247 284 4,000 -550 Descending Potomac TRACON
Thu 19:53:50 39.3333 -76.9167 191° South 245 282 4,000  Level Potomac TRACON
Thu 19:54:50 39.2667 -76.9333 191° South 243 280 4,000 -50 Level Potomac TRACON
Thu 19:55:50 39.2000 -76.9333 180° South 181 208 3,900 -446 Descending Potomac TRACON
Thu 19:56:51 39.1833 -76.8833 113° Southeast 158 182 3,100 -793 Descending Potomac TRACON
Thu 19:57:51 39.1833 -76.8333 90° East 143 165 2,300 -700 Descending Potomac TRACON
Thu 19:58:51 39.1833 -76.7833 90° East 126 145 1,700 -650 Descending Potomac TRACON
Thu 19:59:51 39.1833 -76.7500 90° East 130 150 1,000 -700 Descending Potomac TRACON

Login

Don't have an account? Register now (free) for customized features, flight alerts, and more!